Time;durP1;ratioP1;P1;durP2;ratioP2;P2;SDS_P1;SDS_P2;PMS_P1;PMS_P2;Temp;Humidity;BMP_temperature;BMP_pressure;BME280_temperature;BME280_humidity;BME280_pressure;Samples;Min_cycle;Max_cycle;Signal;HPM_P1;HPM_P2
2023/06/15 00:02:22;;;;;;;3.28;2.15;;;;;;;24.18;29.40;101703.63;16111268;19;130495;-48
2023/06/15 00:07:44;;;;;;;2.83;1.75;;;;;;;24.18;29.55;101703.63;16104498;19;130259;-54
2023/06/15 00:13:06;;;;;;;2.85;1.60;;;;;;;24.17;29.57;101706.69;16112294;19;132790;-51
2023/06/15 00:18:28;;;;;;;2.58;1.50;;;;;;;24.17;29.42;101703.91;16114626;19;131596;-50
2023/06/15 00:23:50;;;;;;;3.58;1.60;;;;;;;24.16;29.83;101705.84;16112101;19;130086;-49
2023/06/15 00:29:12;;;;;;;3.65;1.60;;;;;;;24.15;29.62;101715.34;16117510;19;133881;-50
2023/06/15 00:34:34;;;;;;;2.63;1.58;;;;;;;24.16;29.79;101717.03;16112790;19;131050;-50
2023/06/15 00:39:56;;;;;;;3.03;1.75;;;;;;;24.16;29.54;101713.41;16113527;19;129206;-48
2023/06/15 00:45:18;;;;;;;2.40;1.70;;;;;;;24.14;29.68;101716.44;16109204;19;130616;-46
2023/06/15 00:50:41;;;;;;;4.63;1.33;;;;;;;24.14;29.64;101713.66;16106860;19;130768;-49
2023/06/15 00:56:05;;;;;;;3.33;1.40;;;;;;;24.13;29.83;101711.94;16106352;19;129980;-48
2023/06/15 01:01:27;;;;;;;2.47;1.60;;;;;;;24.11;30.11;101720.63;16115486;19;133979;-48
2023/06/15 01:06:51;;;;;;;3.38;1.80;;;;;;;24.11;29.57;101719.78;16107329;19;131588;-51
2023/06/15 01:12:14;;;;;;;3.00;1.63;;;;;;;24.10;29.85;101721.72;16105296;19;130715;-46
2023/06/15 01:17:44;;;;;;;3.25;2.03;;;;;;;24.11;30.25;101719.78;16110518;19;130237;-51
2023/06/15 01:23:45;;;;;;;4.47;2.10;;;;;;;24.10;30.23;101724.50;16109242;19;129543;-48
2023/06/15 01:29:10;;;;;;;3.38;1.85;;;;;;;24.07;29.92;101718.63;16105877;19;131207;-47
2023/06/15 01:34:32;;;;;;;3.10;1.90;;;;;;;24.06;29.92;101719.72;16111670;19;134531;-49
2023/06/15 01:39:54;;;;;;;2.45;1.80;;;;;;;24.06;29.73;101722.53;16104223;19;130817;-46
2023/06/15 01:45:17;;;;;;;4.78;1.83;;;;;;;24.04;30.01;101727.53;16108770;19;129697;-48
2023/06/15 01:50:41;;;;;;;3.42;1.83;;;;;;;24.03;29.69;101712.72;16107588;19;130902;-49
2023/06/15 01:56:03;;;;;;;2.67;1.60;;;;;;;24.03;30.08;101718.31;16101625;19;130778;-49
2023/06/15 02:01:25;;;;;;;2.15;1.80;;;;;;;24.02;30.20;101721.34;16105330;19;129393;-45
2023/06/15 02:06:47;;;;;;;5.95;2.35;;;;;;;24.01;29.97;101726.13;16107670;19;134282;-50
2023/06/15 02:12:09;;;;;;;3.22;2.10;;;;;;;24.00;30.07;101727.22;16105893;19;131317;-50
2023/06/15 02:17:38;;;;;;;3.35;2.05;;;;;;;23.99;30.02;101725.53;16109498;19;130807;-50
2023/06/15 02:23:02;;;;;;;3.40;2.28;;;;;;;24.00;30.23;101723.59;16107704;19;130857;-49
2023/06/15 02:28:24;;;;;;;2.75;2.20;;;;;;;23.97;30.09;101734.19;16104913;19;129569;-50
2023/06/15 02:33:45;;;;;;;3.63;2.10;;;;;;;23.97;30.03;101736.13;16102159;19;130336;-48
2023/06/15 02:39:08;;;;;;;6.07;2.30;;;;;;;23.96;30.29;101737.22;16116017;19;130416;-48
2023/06/15 02:44:30;;;;;;;3.55;2.30;;;;;;;23.96;30.29;101740.03;16123854;19;130947;-52
2023/06/15 02:49:53;;;;;;;4.85;2.35;;;;;;;23.95;30.24;101738.31;16116319;19;131105;-46
2023/06/15 02:55:15;;;;;;;5.60;2.20;;;;;;;23.94;30.38;101734.69;16119604;19;130056;-47
2023/06/15 03:00:40;;;;;;;9.57;2.03;;;;;;;23.93;30.31;101735.81;16121525;19;129498;-50
2023/06/15 03:06:03;;;;;;;3.70;2.08;;;;;;;23.93;30.39;101741.41;16114813;19;129931;-49
2023/06/15 03:11:26;;;;;;;3.92;2.50;;;;;;;23.94;30.24;101739.44;16115556;19;129996;-48
2023/06/15 03:16:48;;;;;;;4.68;2.35;;;;;;;23.91;30.36;101743.59;16120623;19;130253;-49
2023/06/15 03:22:10;;;;;;;5.32;2.42;;;;;;;23.91;30.45;101743.59;16117649;19;129435;-47
2023/06/15 03:27:32;;;;;;;5.68;2.38;;;;;;;23.91;30.76;101743.59;16114570;19;132534;-48
2023/06/15 03:32:54;;;;;;;2.72;1.85;;;;;;;23.90;30.56;101746.69;16111297;19;130678;-46
2023/06/15 03:38:16;;;;;;;5.50;2.45;;;;;;;23.88;30.39;101755.31;16112136;19;130662;-51
2023/06/15 03:43:38;;;;;;;4.22;2.30;;;;;;;23.87;30.42;101748.06;16119954;19;130969;-46
2023/06/15 03:49:00;;;;;;;3.95;2.38;;;;;;;23.87;30.62;101752.78;16113671;19;130454;-46
2023/06/15 03:54:22;;;;;;;3.42;2.15;;;;;;;23.87;30.41;101753.66;16116419;19;132145;-50
2023/06/15 03:59:44;;;;;;;3.08;2.30;;;;;;;23.86;30.52;101759.47;16118037;19;129878;-49
2023/06/15 04:05:06;;;;;;;4.55;2.08;;;;;;;23.85;30.35;101755.00;16119637;19;129252;-47
2023/06/15 04:10:28;;;;;;;4.50;2.20;;;;;;;23.84;30.66;101764.47;16116650;19;130123;-48
2023/06/15 04:15:52;;;;;;;5.53;2.88;;;;;;;23.83;30.36;101772.03;16118888;19;130812;-49
2023/06/15 04:21:15;;;;;;;2.97;2.08;;;;;;;23.83;30.29;101774.81;16114579;19;130462;-49
2023/06/15 04:26:37;;;;;;;7.13;2.10;;;;;;;23.82;30.56;101773.97;16117885;19;131383;-48
2023/06/15 04:31:59;;;;;;;3.65;2.40;;;;;;;23.81;30.67;101777.88;16116530;19;130459;-51
2023/06/15 04:37:23;;;;;;;3.55;2.10;;;;;;;23.80;30.61;101787.38;16116668;19;129996;-50
2023/06/15 04:42:45;;;;;;;3.60;2.17;;;;;;;23.80;30.33;101780.94;16116742;19;129268;-49
2023/06/15 04:48:07;;;;;;;4.18;2.30;;;;;;;23.80;30.71;101792.09;16109987;19;131246;-46
2023/06/15 04:53:29;;;;;;;3.88;2.17;;;;;;;23.79;30.76;101796.88;16114229;19;130178;-46
2023/06/15 04:58:52;;;;;;;5.07;2.55;;;;;;;23.80;30.80;101797.69;16110363;19;130612;-52
2023/06/15 05:04:14;;;;;;;4.88;2.30;;;;;;;23.79;30.95;101801.59;16112517;19;130755;-54
2023/06/15 05:09:35;;;;;;;4.30;2.30;;;;;;;23.80;30.85;101797.69;16113720;19;129916;-53
2023/06/15 05:14:57;;;;;;;5.07;2.90;;;;;;;23.80;30.78;101814.47;16110533;19;130846;-55
2023/06/15 05:20:20;;;;;;;2.72;2.10;;;;;;;23.80;30.95;101814.47;16109747;19;130100;-55
2023/06/15 05:25:42;;;;;;;3.78;2.72;;;;;;;23.73;30.97;101805.44;16117612;19;129524;-53
2023/06/15 05:31:08;;;;;;;4.00;3.03;;;;;;;23.68;30.81;101808.16;16116605;19;129348;-54
2023/06/15 05:36:31;;;;;;;5.82;2.90;;;;;;;23.62;31.17;101810.03;16112791;19;129905;-54
2023/06/15 05:42:13;;;;;;;8.13;3.28;;;;;;;23.58;31.43;101811.63;16107822;19;130630;-48
2023/06/15 05:47:35;;;;;;;9.52;3.30;;;;;;;23.55;31.60;101817.75;16109402;19;131167;-53
2023/06/15 05:52:57;;;;;;;10.75;3.13;;;;;;;23.57;31.29;101810.78;16105093;19;130836;-47
2023/06/15 05:58:19;;;;;;;6.00;3.22;;;;;;;23.59;31.59;101814.19;16108844;19;130587;-50
2023/06/15 06:03:41;;;;;;;5.10;2.53;;;;;;;23.62;31.56;101813.69;16106309;19;129781;-51
2023/06/15 06:09:04;;;;;;;6.47;2.60;;;;;;;23.64;31.77;101808.66;16103518;19;131380;-49
2023/06/15 06:14:27;;;;;;;5.35;2.65;;;;;;;23.66;31.80;101806.47;16105087;19;131414;-46
2023/06/15 06:19:51;;;;;;;4.70;2.60;;;;;;;23.68;31.93;101814.59;16104260;19;131584;-47
2023/06/15 06:25:13;;;;;;;7.20;3.00;;;;;;;23.70;31.74;101812.38;16106253;19;129590;-49
2023/06/15 06:30:38;;;;;;;5.38;2.50;;;;;;;23.72;31.93;101818.53;16108322;19;129874;-52
2023/06/15 06:35:59;;;;;;;10.32;2.90;;;;;;;23.73;31.93;101814.66;16100528;19;130897;-47
2023/06/15 06:41:21;;;;;;;6.00;2.20;;;;;;;23.74;32.45;101818.31;16104194;19;130660;-53
2023/06/15 06:46:43;;;;;;;5.97;2.45;;;;;;;23.75;32.08;101818.03;16103111;19;129891;-53
2023/06/15 06:52:06;;;;;;;4.53;2.55;;;;;;;23.78;32.07;101827.84;16101258;19;130630;-50
2023/06/15 06:57:28;;;;;;;7.03;3.00;;;;;;;23.78;32.60;101817.53;16105258;19;130224;-52
2023/06/15 07:02:50;;;;;;;7.28;2.70;;;;;;;23.80;32.66;101820.91;16110649;19;129286;-49
2023/06/15 07:08:12;;;;;;;6.00;2.40;;;;;;;23.82;32.95;101823.44;16110656;19;129552;-49
2023/06/15 07:13:34;;;;;;;7.65;2.83;;;;;;;23.83;32.85;101822.31;16108769;19;131801;-49
2023/06/15 07:18:57;;;;;;;6.32;2.38;;;;;;;23.85;32.92;101828.50;16110107;19;130752;-49
2023/06/15 07:24:19;;;;;;;5.78;2.50;;;;;;;23.86;32.75;101827.41;16112624;19;130611;-47
2023/06/15 07:29:41;;;;;;;3.60;2.53;;;;;;;23.88;32.53;101838.31;16123682;19;129483;-51
2023/06/15 07:35:04;;;;;;;6.00;2.30;;;;;;;23.90;32.94;101831.34;16123451;19;130336;-51
2023/06/15 07:40:26;;;;;;;8.38;2.53;;;;;;;23.91;32.90;101837.78;16117663;19;130905;-50
2023/06/15 07:45:48;;;;;;;7.13;2.40;;;;;;;23.93;32.77;101835.59;16120192;19;130185;-48
2023/06/15 07:51:10;;;;;;;5.00;2.60;;;;;;;23.94;32.68;101838.09;16118403;19;129951;-49
2023/06/15 07:56:42;;;;;;;7.82;2.55;;;;;;;23.94;32.73;101838.09;16114651;19;131494;-48
2023/06/15 08:02:04;;;;;;;4.72;2.33;;;;;;;23.96;32.80;101840.63;16109696;19;130173;-47
2023/06/15 08:07:27;;;;;;;5.60;2.35;;;;;;;23.96;32.96;101835.91;16115854;19;133191;-48
2023/06/15 08:12:49;;;;;;;4.40;2.30;;;;;;;23.99;32.80;101844.88;16118995;19;129733;-53
2023/06/15 08:18:11;;;;;;;4.70;2.08;;;;;;;24.01;32.62;101839.84;16117781;19;129585;-49
2023/06/15 08:23:33;;;;;;;5.65;2.20;;;;;;;24.02;32.72;101845.19;16118589;19;131278;-48
2023/06/15 08:28:55;;;;;;;4.53;2.00;;;;;;;24.04;32.43;101842.13;16116373;19;129558;-48
2023/06/15 08:34:34;;;;;;;5.90;2.30;;;;;;;24.04;32.99;101837.41;16116346;19;129373;-50
2023/06/15 08:39:56;;;;;;;9.15;2.28;;;;;;;24.06;32.68;101837.94;16095661;19;132906;-47
2023/06/15 08:45:19;;;;;;;5.13;2.00;;;;;;;24.07;32.75;101847.19;16097679;19;132243;-49
2023/06/15 08:50:41;;;;;;;2.85;2.20;;;;;;;24.04;32.76;101842.13;16107946;19;129767;-48
2023/06/15 08:56:11;;;;;;;3.42;2.08;;;;;;;24.03;33.04;101840.44;16104008;19;129443;-48
2023/06/15 09:01:33;;;;;;;4.57;2.30;;;;;;;24.00;32.90;101839.00;16116969;19;130105;-47
2023/06/15 09:06:57;;;;;;;3.88;1.80;;;;;;;24.00;32.78;101846.56;16112293;19;131166;-47
2023/06/15 09:12:20;;;;;;;5.50;1.92;;;;;;;23.99;32.93;101830.91;16112711;19;129445;-52
2023/06/15 09:17:42;;;;;;;4.90;1.80;;;;;;;23.97;33.02;101832.00;16114877;19;129926;-51
2023/06/15 09:23:08;;;;;;;4.28;1.92;;;;;;;23.97;33.05;101833.94;16117879;19;129923;-50
2023/06/15 09:28:30;;;;;;;3.63;2.00;;;;;;;23.96;32.76;101838.69;16116723;19;129631;-46
2023/06/15 09:34:09;;;;;;;3.38;2.25;;;;;;;23.96;32.55;101830.31;16114745;19;129273;-51
2023/06/15 09:39:31;;;;;;;4.25;1.90;;;;;;;23.94;33.01;101835.31;16117318;19;129864;-49
2023/06/15 09:44:56;;;;;;;3.55;1.83;;;;;;;23.94;32.62;101820.47;16112951;19;130110;-46
2023/06/15 09:50:18;;;;;;;5.57;2.13;;;;;;;23.94;32.36;101817.69;16111570;19;129948;-50
2023/06/15 09:55:43;;;;;;;6.03;2.00;;;;;;;23.94;32.35;101826.94;16112863;19;131178;-47
2023/06/15 10:01:09;;;;;;;6.67;2.10;;;;;;;23.99;32.54;101822.53;16110073;19;129338;-48
2023/06/15 10:06:33;;;;;;;3.35;1.73;;;;;;;24.02;32.66;101825.63;16115182;19;129601;-55
2023/06/15 10:12:18;;;;;;;3.60;2.03;;;;;;;24.05;32.65;101829.84;16109407;19;131034;-53
2023/06/15 10:17:46;;;;;;;3.42;1.83;;;;;;;24.06;32.59;101818.38;16112352;19;129470;-52
2023/06/15 10:23:15;;;;;;;2.60;2.00;;;;;;;24.12;32.60;101816.53;16112242;19;130779;-52
2023/06/15 10:28:49;;;;;;;14.48;2.10;;;;;;;24.15;32.15;101820.75;16111384;19;129560;-54
2023/06/15 10:34:20;;;;;;;3.30;2.10;;;;;;;24.16;32.76;101814.88;16109861;19;129383;-50
2023/06/15 10:39:45;;;;;;;4.70;1.80;;;;;;;24.21;32.77;101820.53;16107796;19;130533;-53
2023/06/15 10:45:33;;;;;;;3.60;2.00;;;;;;;24.22;32.43;101821.38;16109443;19;129317;-52
2023/06/15 10:51:03;;;;;;;2.90;2.00;;;;;;;24.26;32.34;101811.38;16107802;19;129742;-49
2023/06/15 10:56:27;;;;;;;3.95;2.10;;;;;;;24.24;32.15;101811.66;16107109;19;129529;-56
2023/06/15 11:01:49;;;;;;;2.73;1.77;;;;;;;24.24;32.35;101814.44;16126336;19;129497;-48
2023/06/15 11:07:45;;;;;;;4.78;2.10;;;;;;;24.25;32.02;101818.91;16123899;19;131848;-51
2023/06/15 11:13:08;;;;;;;3.60;2.10;;;;;;;24.23;31.80;101818.31;16126508;19;129794;-48
2023/06/15 11:18:31;;;;;;;4.15;2.00;;;;;;;24.24;31.92;101822.84;16124999;19;129929;-50
2023/06/15 11:23:57;;;;;;;4.03;2.30;;;;;;;24.24;31.39;101816.34;16121424;19;131341;-50
2023/06/15 11:29:25;;;;;;;3.80;2.25;;;;;;;24.24;31.76;101814.44;16122739;19;129836;-50
2023/06/15 11:34:47;;;;;;;4.13;1.83;;;;;;;24.24;31.77;101808.84;16118780;19;129845;-48
2023/06/15 11:40:10;;;;;;;3.42;1.88;;;;;;;24.25;31.75;101804.09;16121110;19;129456;-52
2023/06/15 11:45:34;;;;;;;4.35;1.88;;;;;;;24.26;31.54;101795.44;16124425;19;134400;-49
2023/06/15 11:50:57;;;;;;;4.03;1.88;;;;;;;24.27;31.52;101796.28;16125980;19;130021;-51
2023/06/15 11:56:20;;;;;;;2.45;2.00;;;;;;;24.27;31.68;101787.91;16120916;19;130721;-50
2023/06/15 12:01:42;;;;;;;3.88;1.80;;;;;;;24.30;31.80;101783.72;16120931;19;130652;-49
2023/06/15 12:07:05;;;;;;;3.20;2.00;;;;;;;24.29;32.10;101777.31;16121615;19;129639;-49
2023/06/15 12:12:30;;;;;;;2.88;1.90;;;;;;;24.27;31.41;101777.56;16118673;19;134182;-49
2023/06/15 12:17:54;;;;;;;;;;;;;;;24.26;31.74;101777.81;16123056;19;131250;-47
2023/06/15 12:23:29;;;;;;;3.95;2.15;;;;;;;24.30;30.98;101780.94;16116560;19;130375;-51
2023/06/15 12:28:52;;;;;;;5.00;2.23;;;;;;;24.26;31.32;101775.03;16107637;19;129885;-47
2023/06/15 12:34:14;;;;;;;2.90;1.98;;;;;;;24.25;31.15;101776.97;16113190;19;130110;-47
2023/06/15 12:39:37;;;;;;;2.35;1.73;;;;;;;24.26;31.09;101775.03;16116833;19;130856;-49
2023/06/15 12:44:59;;;;;;;2.45;1.80;;;;;;;24.27;31.15;101766.38;16109053;19;130608;-52
2023/06/15 12:50:21;;;;;;;2.65;1.98;;;;;;;24.27;31.05;101752.38;16115206;19;129394;-47
2023/06/15 12:55:44;;;;;;;2.90;2.20;;;;;;;24.26;30.59;101756.28;16114803;19;129471;-53
2023/06/15 13:01:06;;;;;;;7.00;2.30;;;;;;;24.27;30.01;101751.56;16111509;19;131054;-51
2023/06/15 13:06:28;;;;;;;9.82;2.38;;;;;;;24.31;29.83;101747.09;16112406;19;130793;-49
2023/06/15 13:11:50;;;;;;;13.88;2.83;;;;;;;24.34;29.65;101740.16;16107661;19;130881;-49
2023/06/15 13:17:12;;;;;;;13.07;3.30;;;;;;;24.38;29.75;101741.28;16112819;19;130671;-51
2023/06/15 13:22:35;;;;;;;25.10;3.55;;;;;;;24.41;29.96;101746.34;16114752;19;129553;-52
2023/06/15 13:27:57;;;;;;;16.02;3.25;;;;;;;24.44;29.79;101737.44;16113087;19;130071;-53
2023/06/15 13:33:20;;;;;;;12.95;2.58;;;;;;;24.46;29.58;101735.22;16112353;19;130835;-52
2023/06/15 13:38:42;;;;;;;18.58;3.55;;;;;;;24.46;29.64;101732.44;16111093;19;130514;-51
2023/06/15 13:44:04;;;;;;;11.52;2.80;;;;;;;24.45;29.09;101730.75;16110882;19;130974;-50
2023/06/15 13:49:26;;;;;;;12.85;3.08;;;;;;;24.46;29.07;101721.25;16107878;19;130698;-51
2023/06/15 13:54:50;;;;;;;14.23;2.88;;;;;;;24.46;28.92;101717.59;16110899;19;130553;-50
2023/06/15 14:00:12;;;;;;;23.23;3.10;;;;;;;24.48;28.80;101720.97;16114577;19;129811;-50
2023/06/15 14:05:37;;;;;;;24.88;3.53;;;;;;;24.50;29.21;101718.75;16110935;19;131052;-50
2023/06/15 14:10:59;;;;;;;22.55;3.10;;;;;;;24.50;29.12;101716.78;16109153;19;129512;-53
2023/06/15 14:16:21;;;;;;;17.65;3.88;;;;;;;24.50;29.22;101713.97;16108065;19;130557;-49
2023/06/15 14:21:43;;;;;;;17.60;3.45;;;;;;;24.50;29.32;101708.38;16106710;19;129783;-50
2023/06/15 14:27:05;;;;;;;20.65;3.40;;;;;;;24.48;29.23;101710.63;16109884;19;129304;-54
2023/06/15 14:32:27;;;;;;;12.02;3.15;;;;;;;24.46;29.13;101704.47;16114490;19;130737;-52
2023/06/15 14:37:51;;;;;;;16.30;3.28;;;;;;;24.47;29.34;101706.16;16119903;19;130475;-53
2023/06/15 14:43:13;;;;;;;10.75;2.67;;;;;;;24.46;29.31;101709.19;16120556;19;130471;-53
2023/06/15 14:48:35;;;;;;;7.18;2.85;;;;;;;24.45;29.51;101697.19;16122193;19;130049;-48
2023/06/15 14:53:57;;;;;;;6.05;3.03;;;;;;;24.44;29.35;101703.88;16119119;19;129598;-52
2023/06/15 14:59:19;;;;;;;9.07;2.88;;;;;;;24.47;29.25;101697.75;16116630;19;131446;-49
2023/06/15 15:04:41;;;;;;;9.25;3.20;;;;;;;24.51;29.26;101704.47;16119571;19;131331;-51
2023/06/15 15:10:04;;;;;;;5.90;2.88;;;;;;;24.55;29.35;101691.66;16120389;19;129517;-50
2023/06/15 15:15:27;;;;;;;14.15;3.35;;;;;;;24.60;29.35;101682.44;16110878;19;131936;-51
2023/06/15 15:20:49;;;;;;;11.40;2.95;;;;;;;24.62;29.51;101679.38;16119964;19;129259;-47
2023/06/15 15:26:11;;;;;;;9.95;3.15;;;;;;;24.61;29.35;101672.13;16121002;19;129992;-50
2023/06/15 15:31:33;;;;;;;17.20;3.88;;;;;;;24.62;29.72;101670.97;16117542;19;129839;-50
2023/06/15 15:36:55;;;;;;;12.40;3.30;;;;;;;24.62;30.00;101668.19;16111581;19;130599;-51
2023/06/15 15:42:17;;;;;;;8.65;3.33;;;;;;;24.62;29.92;101668.19;16117656;19;131481;-50
2023/06/15 15:47:39;;;;;;;9.18;3.22;;;;;;;24.60;29.60;101660.06;16115702;19;130772;-54
2023/06/15 15:53:01;;;;;;;8.18;2.85;;;;;;;24.61;29.64;101653.38;16115612;19;130348;-52
2023/06/15 15:58:23;;;;;;;7.47;3.20;;;;;;;24.62;29.46;101654.19;16114938;19;129629;-52
2023/06/15 16:03:45;;;;;;;12.00;3.67;;;;;;;24.61;29.61;101655.34;16116203;19;130293;-49
2023/06/15 16:09:07;;;;;;;5.07;2.70;;;;;;;24.61;29.49;101650.56;16115113;19;134510;-50
2023/06/15 16:14:29;;;;;;;10.45;2.88;;;;;;;24.61;29.10;101655.34;16115575;19;130689;-47
2023/06/15 16:19:51;;;;;;;5.18;3.00;;;;;;;24.60;29.68;101653.66;16114293;19;130545;-51
2023/06/15 16:25:14;;;;;;;4.38;2.63;;;;;;;24.60;29.35;101653.66;16112938;19;129960;-49
2023/06/15 16:30:36;;;;;;;8.02;3.17;;;;;;;24.58;29.20;101653.91;16111776;19;130420;-54
2023/06/15 16:35:58;;;;;;;7.65;3.08;;;;;;;24.57;29.57;101644.69;16109900;19;131635;-50
2023/06/15 16:41:20;;;;;;;5.65;3.47;;;;;;;24.58;29.62;101651.97;16111571;19;130996;-52
2023/06/15 16:46:42;;;;;;;6.20;2.90;;;;;;;24.60;29.58;101650.84;16111523;19;130084;-51
2023/06/15 16:52:09;;;;;;;5.45;2.80;;;;;;;24.63;29.51;101648.34;16096243;19;130638;-51
2023/06/15 16:57:31;;;;;;;6.80;3.35;;;;;;;24.63;29.64;101658.69;16096313;19;130867;-48
2023/06/15 17:02:54;;;;;;;7.60;3.17;;;;;;;24.62;29.46;101663.44;16103122;19;131173;-48
2023/06/15 17:08:17;;;;;;;11.65;3.95;;;;;;;24.62;29.54;101651.41;16102439;19;129656;-51
2023/06/15 17:13:39;;;;;;;9.55;3.35;;;;;;;24.61;29.62;101661.75;16115462;19;131412;-51
2023/06/15 17:19:00;;;;;;;4.15;2.90;;;;;;;24.62;29.60;101665.38;16109348;19;129369;-54
2023/06/15 17:24:23;;;;;;;4.93;3.15;;;;;;;24.61;29.88;101664.56;16113312;19;131456;-50
2023/06/15 17:29:45;;;;;;;4.75;3.17;;;;;;;24.61;30.10;101660.94;16115107;19;129560;-49
2023/06/15 17:35:08;;;;;;;6.93;3.20;;;;;;;24.61;29.68;101666.53;16109631;19;134217;-54
2023/06/15 17:40:30;;;;;;;13.85;3.35;;;;;;;24.61;30.12;101663.72;16007757;19;134629;-49
2023/06/15 17:45:52;;;;;;;14.70;3.22;;;;;;;24.62;30.12;101670.97;16111751;19;131852;-49
2023/06/15 17:51:14;;;;;;;7.82;2.95;;;;;;;24.63;30.30;101664.28;16105995;19;130473;-54
2023/06/15 17:56:37;;;;;;;10.25;3.30;;;;;;;24.63;30.21;101672.66;16107148;19;130066;-55
2023/06/15 18:01:59;;;;;;;7.32;3.15;;;;;;;24.66;30.39;101674.94;16112192;19;130089;-53
2023/06/15 18:07:20;;;;;;;9.27;3.70;;;;;;;24.66;30.42;101673.00;16109796;19;130683;-50
2023/06/15 18:12:43;;;;;;;15.05;3.45;;;;;;;24.67;30.51;101682.22;16105576;19;129317;-49
2023/06/15 18:18:09;;;;;;;6.47;2.75;;;;;;;24.68;30.54;101678.31;16111014;19;130364;-51
2023/06/15 18:23:31;;;;;;;5.20;2.80;;;;;;;24.68;30.43;101681.09;16110500;19;130083;-52
2023/06/15 18:28:54;;;;;;;9.65;2.83;;;;;;;24.68;30.35;101681.09;16108244;19;131937;-49
2023/06/15 18:34:16;;;;;;;5.90;2.72;;;;;;;24.68;30.42;101686.72;16106399;19;129771;-51
2023/06/15 18:39:38;;;;;;;6.45;2.70;;;;;;;24.67;30.48;101683.06;16108363;19;130631;-52
2023/06/15 18:45:00;;;;;;;6.63;2.80;;;;;;;24.68;30.27;101683.91;16104025;19;129669;-52
2023/06/15 18:50:22;;;;;;;12.30;2.92;;;;;;;24.67;30.29;101687.81;16100142;19;129830;-53
2023/06/15 18:55:44;;;;;;;5.43;2.85;;;;;;;24.66;30.29;101686.97;16099767;19;131201;-51
2023/06/15 19:01:06;;;;;;;7.85;2.90;;;;;;;24.66;30.10;101691.72;16102918;19;130855;-52
2023/06/15 19:06:28;;;;;;;4.93;2.22;;;;;;;24.65;30.22;101704.03;16093017;19;129473;-51
2023/06/15 19:11:55;;;;;;;6.63;2.53;;;;;;;24.66;30.02;101697.31;16102731;19;131498;-54
2023/06/15 19:17:17;;;;;;;8.93;2.70;;;;;;;24.66;30.43;101703.78;16093295;19;131282;-50
2023/06/15 19:22:39;;;;;;;6.50;2.42;;;;;;;24.66;29.85;101697.31;16116372;19;130163;-49
2023/06/15 19:28:01;;;;;;;4.68;2.50;;;;;;;24.66;30.02;101717.75;16117143;19;130638;-51
2023/06/15 19:33:23;;;;;;;4.82;2.50;;;;;;;24.64;30.07;101721.91;16120539;19;130933;-49
2023/06/15 19:38:45;;;;;;;4.65;2.42;;;;;;;24.63;30.05;101725.81;16118282;19;129786;-48
2023/06/15 19:44:22;;;;;;;8.77;2.85;;;;;;;24.61;30.03;101731.69;16118766;19;131167;-54
2023/06/15 19:49:44;;;;;;;4.85;2.42;;;;;;;24.58;29.91;101733.09;16114554;19;130789;-53
2023/06/15 19:55:07;;;;;;;7.90;2.60;;;;;;;24.57;29.95;101745.38;16116089;19;130558;-51
2023/06/15 20:00:28;;;;;;;4.80;2.35;;;;;;;24.56;30.29;101749.28;16116800;19;129859;-50
2023/06/15 20:05:50;;;;;;;5.93;2.58;;;;;;;24.56;30.26;101757.69;16110638;19;130738;-52
2023/06/15 20:11:12;;;;;;;6.95;2.42;;;;;;;24.54;30.13;101759.06;16116779;19;131735;-51
2023/06/15 20:16:34;;;;;;;8.45;2.65;;;;;;;24.52;29.95;101764.91;16118220;19;130406;-51
2023/06/15 20:21:57;;;;;;;9.75;2.42;;;;;;;24.49;30.30;101765.47;16113835;19;130818;-50
2023/06/15 20:27:19;;;;;;;6.15;2.15;;;;;;;24.47;30.32;101770.47;16114484;19;129730;-47
2023/06/15 20:32:42;;;;;;;9.65;2.63;;;;;;;24.45;30.07;101772.69;16108941;19;131582;-48
2023/06/15 20:38:04;;;;;;;8.43;2.65;;;;;;;24.43;30.32;101772.09;16107311;19;131312;-47
2023/06/15 20:43:27;;;;;;;6.32;2.20;;;;;;;24.40;30.54;101769.84;16107746;19;130602;-53
2023/06/15 20:48:49;;;;;;;9.68;2.45;;;;;;;24.40;30.33;101778.22;16109597;19;130152;-54
2023/06/15 20:54:11;;;;;;;7.72;2.58;;;;;;;24.38;30.50;101772.03;16117149;19;129753;-55
2023/06/15 20:59:33;;;;;;;5.45;2.08;;;;;;;24.37;30.14;101787.16;16108672;19;129700;-52
2023/06/15 21:04:55;;;;;;;8.55;2.35;;;;;;;24.35;30.37;101778.19;16109487;19;131937;-50
2023/06/15 21:10:18;;;;;;;5.88;2.65;;;;;;;24.35;30.64;101778.19;16110989;19;129593;-50
2023/06/15 21:15:40;;;;;;;6.95;2.42;;;;;;;24.34;30.75;101784.91;16112834;19;129436;-48
2023/06/15 21:21:04;;;;;;;5.20;2.38;;;;;;;24.33;30.42;101788.81;16106315;19;131475;-47
2023/06/15 21:26:27;;;;;;;3.92;2.42;;;;;;;24.32;31.04;101787.09;16112798;19;129668;-51
2023/06/15 21:31:49;;;;;;;4.68;2.15;;;;;;;24.31;30.80;101791.84;16112308;19;129917;-52
2023/06/15 21:37:10;;;;;;;3.55;2.33;;;;;;;24.31;30.83;101791.84;16105471;19;129881;-51
2023/06/15 21:42:32;;;;;;;5.95;2.25;;;;;;;24.30;30.81;101794.91;16107302;19;129926;-52
2023/06/15 21:47:54;;;;;;;4.65;2.47;;;;;;;24.29;30.77;101793.22;16113371;19;130841;-52
2023/06/15 21:53:16;;;;;;;5.72;2.40;;;;;;;24.27;30.63;101796.28;16112005;19;129063;-51
2023/06/15 21:58:41;;;;;;;4.43;2.13;;;;;;;24.27;30.66;101790.69;16109570;19;129695;-54
2023/06/15 22:04:04;;;;;;;2.93;2.10;;;;;;;24.25;30.98;101793.75;16107877;19;131628;-53
2023/06/15 22:09:26;;;;;;;6.70;2.47;;;;;;;24.24;31.10;101791.19;16106428;19;130885;-53
2023/06/15 22:14:48;;;;;;;7.55;2.80;;;;;;;24.24;30.87;101797.69;16107201;19;129986;-54
2023/06/15 22:20:13;;;;;;;4.22;2.25;;;;;;;24.22;30.83;101794.25;16101451;19;131209;-55
2023/06/15 22:25:35;;;;;;;4.22;2.35;;;;;;;24.20;31.05;101796.47;16099007;19;129279;-52
2023/06/15 22:31:15;;;;;;;5.53;2.40;;;;;;;24.20;31.08;101785.28;16095345;19;131133;-50
2023/06/15 22:36:37;;;;;;;3.03;2.33;;;;;;;24.20;31.06;101788.09;16100878;19;130351;-48
2023/06/15 22:41:59;;;;;;;3.42;2.35;;;;;;;24.19;31.32;101786.38;16101630;19;131168;-52
2023/06/15 22:47:25;;;;;;;4.55;2.35;;;;;;;24.19;30.98;101788.31;16101726;19;129802;-52
2023/06/15 22:52:48;;;;;;;4.85;2.50;;;;;;;24.17;30.95;101785.81;16102422;19;131536;-48
2023/06/15 22:58:10;;;;;;;5.35;2.22;;;;;;;24.17;31.01;101785.81;16114126;19;132860;-52
2023/06/15 23:03:31;;;;;;;3.95;2.13;;;;;;;24.17;31.30;101785.81;16119147;19;129687;-48
2023/06/15 23:08:53;;;;;;;3.45;2.20;;;;;;;24.15;31.56;101788.00;16117937;19;129648;-52
2023/06/15 23:14:20;;;;;;;2.60;2.10;;;;;;;24.14;31.83;101783.53;16116571;19;130994;-51
2023/06/15 23:19:42;;;;;;;3.30;2.03;;;;;;;24.15;31.43;101781.59;16120567;19;130981;-51
2023/06/15 23:25:05;;;;;;;3.60;2.28;;;;;;;24.14;31.48;101779.91;16121732;19;131806;-49
2023/06/15 23:30:27;;;;;;;3.90;2.30;;;;;;;24.14;31.53;101774.31;16112419;19;130956;-53
2023/06/15 23:35:48;;;;;;;5.47;2.42;;;;;;;24.13;31.94;101773.47;16118660;19;130642;-48
2023/06/15 23:41:10;;;;;;;3.95;2.10;;;;;;;24.12;31.43;101769.00;16121268;19;131076;-49
2023/06/15 23:46:33;;;;;;;4.28;2.60;;;;;;;24.12;31.89;101763.41;16116621;19;129694;-51
2023/06/15 23:51:55;;;;;;;3.28;2.33;;;;;;;24.11;31.38;101764.50;16116278;19;130233;-48
2023/06/15 23:57:17;;;;;;;2.75;2.08;;;;;;;24.09;31.91;101756.38;16118546;19;131622;-50
